WEATHER DATA

TODAY
Time Temp. Dewp. Hum. Wind dir Wind speed Wind gust Bar. 1h Prec. 24h Prec.
00:16 17.1 14.4 84 0 0.6 1002.9 0.0000 0.0000
00:26 17 14.3 84 231 0.3 0.6 1003.1 0.0000 0.0000
00:36 17 14.3 84 213 0.3 0.6 1003 0.0000 0.0000
00:46 16.9 14.2 84 0 0.6 1003 0.0000 0.0000
00:56 16.9 14.2 84 0 0.3 1003 0.0000 0.0000
01:02 16.9 14.2 84 213 0.3 0.6 1002.8 0.0000 0.0000
01:12 16.9 14.4 85 270 0.3 0.6 1002.9 0.0000 0.0000
01:23 16.9 14.4 85 214 0.3 0.6 1002.8 0.0000 0.0000
01:32 16.9 14.4 85 225 0.3 0.6 1002.9 0.0000 0.0000
01:42 16.9 14.4 85 198 0.3 0.6 1002.8 0.0000 0.0000
01:53 16.9 14.4 85 195 0.3 1.1 1002.7 0.0000 0.0000
02:03 17 14.5 85 193 0.3 0.8 1002.6 0.0000 0.0000
02:12 17 14.5 85 203 0.3 0.6 1002.4 0.0000 0.0000
02:22 17 14.3 84 198 0.6 1.1 1002.6 0.0000 0.0000
02:33 17 14.3 84 190 0.6 1.1 1002.6 0.0000 0.0000
02:43 17 14.3 84 209 0.3 0.6 1002.5 0.0000 0.0000
02:52 17 14.3 84 194 0.3 0.8 1002.5 0.0000 0.0000
03:03 16.9 14.4 85 205 0.3 0.6 1002.1 0.0000 0.0000
03:13 16.9 14.4 85 219 0.3 0.6 1001.7 0.0000 0.0000
03:23 16.8 14.3 85 198 0.3 0.6 1001.8 0.0000 0.0000
03:32 16.8 14.3 85 219 0.3 0.6 1001.8 0.0000 0.0000
03:43 16.8 14.1 84 219 0.3 0.6 1001.7 0.0000 0.0000
03:53 16.8 14.3 85 203 0.3 0.6 1001.5 0.0000 0.0000
04:03 16.8 14.1 84 225 0.3 1.1 1001.7 0.0000 0.0000
04:13 16.8 14.1 84 173 0.6 1.4 1001.7 0.0000 0.0000
04:23 16.8 14.1 84 198 0.3 0.8 1001.3 0.0000 0.0000
04:33 16.7 14 84 212 0.3 0.6 1001.3 0.0000 0.0000
04:43 16.7 14 84 219 0.3 0.6 1001.3 0.0000 0.0000
04:53 16.6 13.9 84 212 0.3 0.6 1001.1 0.0000 0.0000
05:03 16.5 13.8 84 195 0.3 0.6 1001 0.0000 0.0000
05:13 16.4 13.9 85 205 0.3 0.8 1001 0.0000 0.0000
05:24 16.4 13.7 84 198 0.6 1.1 1001 0.0000 0.0000
05:33 16.4 13.7 84 201 0.3 1.1 1000.8 0.0000 0.0000
05:43 16.4 13.7 84 205 0.6 1.7 1000.9 0.0000 0.0000
05:53 16.4 13.7 84 209 0.6 0.8 1000.8 0.0000 0.0000
06:04 16.4 13.5 83 191 0.6 0.8 1000.6 0.0000 0.0000
06:14 16.3 13.4 83 222 0.6 1.4 1000.6 0.0000 0.0000
06:23 16.3 13.4 83 225 0.3 1.1 1000.6 0.0000 0.0000
06:34 16.3 13.4 83 270 0.3 0.6 1000.7 0.0000 0.0000
06:44 16.3 13.4 83 221 0.3 1.1 1000.8 0.0000 0.0000
06:54 16.3 13.4 83 221 0.3 0.8 1000.8 0.0000 0.0000
07:04 16.4 13.7 84 200 0.3 0.8 1000.6 0.0000 0.0000
07:14 16.5 13.8 84 215 0.3 0.8 1000.8 0.0000 0.0000
07:24 16.6 13.9 84 195 0.3 0.8 1000.8 0.0000 0.0000
07:34 16.7 14 84 200 0.3 0.6 1000.7 0.0000 0.0000
07:44 16.7 14 84 225 0.3 0.6 1000.6 0.0000 0.0000
07:54 16.9 14.2 84 212 0.3 0.6 1000.7 0.0000 0.0000
08:04 17.2 14.3 83 220 0.3 0.8 1000.7 0.0000 0.0000
08:14 17.5 14.6 83 217 0.3 1.1 1000.9 0.0000 0.0000
08:24 17.8 14.7 82 212 0.6 3.1 1001.2 0.0000 0.0000
08:34 18.1 14.8 81 180 0.6 1.4 1001.2 0.0000 0.0000
08:44 18.5 14.8 79 205 1.1 2.5 1001.3 0.0000 0.0000
08:55 18.7 14.8 78 191 1.1 3.1 1001.2 0.0000 0.0000
09:05 19 14.9 77 178 1.1 3.9 1001.1 0.0000 0.0000
09:14 19.3 15.2 77 196 0.8 2.2 1000.9 0.0000 0.0000
09:24 19.7 15.4 76 187 1.1 3.6 1000.9 0.0000 0.0000
09:35 20 15.4 75 175 1.4 4.2 1000.8 0.0000 0.0000
09:45 20.4 15.6 74 194 1.1 3.6 1000.8 0.0000 0.0000
09:54 20.9 15.9 73 195 0.8 2.2 1000.7 0.0000 0.0000
10:05 21.5 16 71 182 1.4 2.5 1000.9 0.0000 0.0000
10:15 22.1 16.2 69 217 1.1 2.5 1000.9 0.0000 0.0000
10:25 22.5 16.5 69 195 0.6 1.9 1000.7 0.0000 0.0000
10:35 22.9 16.5 67 222 1.1 3.9 1000.8 0.0000 0.0000
10:45 23.2 17 68 184 0.8 2.5 1000.7 0.0000 0.0000
10:55 23.8 16.8 65 203 1.1 2.5 1000.7 0.0000 0.0000
11:05 24.2 17.5 66 175 1.1 5.6 1000.7 0.0000 0.0000
11:16 24.8 17.3 63 215 1.4 4.2 1000.8 0.0000 0.0000
11:25 25.4 17.3 61 194 1.1 3.3 1000.7 0.0000 0.0000
11:35 25.5 17.7 62 221 1.1 3.6 1000.8 0.0000 0.0000
11:56 25.9 17.8 61 225 0.6 2.5 1000.6 0.0000 0.0000
12:05 26.7 19.1 63 189 1.1 4.4 1000.6 0.0000 0.0000
12:15 27.2 18.2 58 208 1.4 4.2 1000.5 0.0000 0.0000
12:26 27.4 17.9 56 221 1.4 3.3 1000.6 0.0000 0.0000
12:36 27.8 18.2 56 218 1.1 2.5 1000.6 0.0000 0.0000
12:46 28 18.7 57 212 1.1 3.1 1000.6 0.0000 0.0000
12:56 28.2 17.7 53 184 1.7 4.4 1000.7 0.0000 0.0000
13:06 28.3 18.4 55 217 0.8 3.6 1000.7 0.0000 0.0000
13:16 28.9 18.4 53 209 0.8 2.5 1000.6 0.0000 0.0000
13:26 29.2 18.6 53 210 0.6 2.2 1000.4 0.0000 0.0000
13:36 29.4 18.2 51 203 1.1 2.5 1000.2 0.0000 0.0000
13:46 29.9 18.4 50 215 0.8 3.1 1000 0.0000 0.0000
13:51 30.1 18.2 49 205 1.1 5.8 1000.1 0.0000 0.0000
14:01 30.1 17.9 48 223 1.4 4.2 1000.1 0.0000 0.0000
14:12 30.6 19 50 187 0.8 2.5 1000 0.0000 0.0000
14:22 31.1 18.8 48 204 1.1 2.2 999.9 0.0000 0.0000
14:31 31.2 17.5 44 207 1.4 5.3 1000.1 0.0000 0.0000
14:41 31.2 18.6 47 195 1.4 3.3 999.8 0.0000 0.0000
14:52 31.5 17.8 44 206 1.4 4.7 999.8 0.0000 0.0000
15:02 31.4 18 45 200 1.4 4.4 999.7 0.0000 0.0000
15:12 31.5 18.5 46 202 1.1 4.2 999.5 0.0000 0.0000
15:28 31.8 17.7 43 189 1.4 8.1 999.6 0.0000 0.0000
15:39 31.7 16.8 41 218 1.4 3.9 999.5 0.0000 0.0000
15:49 31.8 16.9 41 206 1.7 4.7 999.5 0.0000 0.0000
15:59 32 18.2 44 207 0.8 2.2 999.5 0.0000 0.0000
16:09 32 17.1 41 215 1.1 3.3 999.4 0.0000 0.0000
16:19 32.1 17.6 42 218 1.4 4.2 999.3 0.0000 0.0000
16:29 31.9 17 41 225 1.7 3.6 999.3 0.0000 0.0000
16:39 31.9 18.1 44 177 1.1 3.3 999.1 0.0000 0.0000
16:50 31.9 17.8 43 215 1.7 4.7 999 0.0000 0.0000
16:59 31.7 16.8 41 216 1.7 5 999.1 0.0000 0.0000
17:09 31.5 17.4 43 177 1.1 2.2 999.1 0.0000 0.0000

DAY STATISTIC

2019-08-18
TEMPERATURE
AVERAGE
21.9
HIGH
32.1
16:19
LOW
16.3
06:14
PRESSURE
AVERAGE
1001.0
HIGH
1003.1
00:26
LOW
999.0
16:50
DEWPOINT
AVERAGE
15.7
HIGH
19.1
12:05
LOW
13.4
06:14
HUMIDITY
AVERAGE
70
HIGH
85
01:12
LOW
41
15:39
WIND SPEED
AVERAGE
0.7
HIGH
1.7
12:56
WIND GUST
AVERAGE
2.2
HIGH
8.1
15:28
WIND DIRECTION
PREVAILING
SW
52.5%
N
0.0
NE
0.0
E
0.0
SE
0.0
S
42.6
SW
52.5
W
2.0
NW
0.0
PRECIPITATION
RAIN HOUR
0.0
RAIN DAY
0.0
TEMPERATURE (°C)
LOW
16.3
HIGH
32.1
AVERAGE
21.9
PRESSURE (hpa)
LOW
999.0
HIGH
1003.1
AVERAGE
1001.0
DEVICE